Main page
METAR-TAF:

METAR-TAF

Airports :

Niue International Airport

Alofi, Niue

latitude: 19-04S, longitude: 169-55W, elevation: 20 m

Current weather observation

The report was made 25 minutes ago, at 16:30 UTC
Wind 9 kt from the South/Southwest, varying between South and West/Southwest
Temperature 23°C
Humidity 69%
Pressure 1011 hPa
Visibility 10 km or more

METAR: NIUE 211630Z AUTO 20009KT 170V240 9999 SCT033/// BKN045/// 23/17 Q1011

Time: 05:55 (16:55 UTC)

Forecast

The report was made 5 hours and 35 minutes ago, at 11:20 UTC
Forecast valid from 21 at 12 UTC to 22 at 12 UTC
Wind 8 kt from the South/Southwest
Visibility 10 km or more
Broken clouds at a height of 2300 ft
Broken clouds at a height of 3000 ft

TAF: NIUE 211120Z 2112/2212 21008KT 9999 BKN023 BKN030

Weather observations and forecasts of more than 4000 airports (METAR and TAF reports).

The available stations are represented by yellow and red dots on the map.

Hover mouse over dot to see the name of the station.

Then click to see weather observations and forecasts.

To change the map : click on the green buttons with a black cross to zoom in, on the green button with a dash to zoom out, or on the green arrows for adjacent maps.


METAR-TAF: